createdAt,value
2019-05-13T00:00:03.703Z,7.2
2019-05-13T00:01:06.710Z,7.1
2019-05-13T00:02:04.298Z,7.1
2019-05-13T00:03:03.558Z,7.1
2019-05-13T00:04:03.550Z,7.1
2019-05-13T00:05:03.851Z,7
2019-05-13T00:06:04.105Z,7
2019-05-13T00:07:04.391Z,7
2019-05-13T00:08:03.423Z,7
2019-05-13T00:09:03.500Z,7.1
2019-05-13T00:10:03.972Z,7.2
2019-05-13T00:11:04.355Z,7.2
2019-05-13T00:12:04.582Z,7.3
2019-05-13T00:13:04.309Z,7.3
2019-05-13T00:14:04.362Z,7.2
2019-05-13T00:15:03.689Z,7.3
2019-05-13T00:16:03.668Z,7.3
2019-05-13T00:17:04.180Z,7.3
2019-05-13T00:18:03.817Z,7.3
2019-05-13T00:19:04.099Z,7.3
2019-05-13T00:20:03.928Z,7.3
2019-05-13T00:21:03.600Z,7.3
2019-05-13T00:22:03.719Z,7.3
2019-05-13T00:23:03.826Z,7.3
2019-05-13T00:24:04.073Z,7.3
2019-05-13T00:25:03.948Z,7.2
2019-05-13T00:26:03.734Z,7.1
2019-05-13T00:27:03.838Z,7.2
2019-05-13T00:28:03.986Z,7.2
2019-05-13T00:29:04.090Z,7.3
2019-05-13T00:30:04.230Z,7.3
2019-05-13T00:31:03.583Z,7.2
2019-05-13T00:32:04.665Z,7
2019-05-13T00:33:03.896Z,6.7
2019-05-13T00:34:03.862Z,6.6
2019-05-13T00:35:03.988Z,6.7
2019-05-13T00:36:04.102Z,6.9
2019-05-13T00:37:10.561Z,7
2019-05-13T00:38:04.071Z,7.1
2019-05-13T00:39:04.008Z,7.2
2019-05-13T00:40:04.025Z,7.3
2019-05-13T00:41:03.901Z,7.3
2019-05-13T00:42:04.104Z,7.3
2019-05-13T00:43:04.139Z,7.3
2019-05-13T00:44:03.980Z,7.2
2019-05-13T00:45:04.141Z,7.3
2019-05-13T00:46:04.127Z,7.2
2019-05-13T00:47:04.543Z,7.2
2019-05-13T00:48:04.451Z,7.3
2019-05-13T00:49:04.714Z,7.2
2019-05-13T00:50:03.995Z,7.2
2019-05-13T00:51:04.109Z,7.2
2019-05-13T00:52:04.091Z,7.2
2019-05-13T00:53:04.544Z,7.2
2019-05-13T00:54:04.409Z,7.2
2019-05-13T00:55:04.346Z,7.1
2019-05-13T00:56:04.248Z,7.1
2019-05-13T00:57:04.428Z,7.1
2019-05-13T00:58:04.610Z,7.1
2019-05-13T00:59:04.358Z,7
2019-05-13T01:00:04.443Z,6.9
2019-05-13T01:01:04.397Z,6.9
2019-05-13T01:02:04.436Z,7
2019-05-13T01:03:07.215Z,6.9
2019-05-13T01:04:04.693Z,7
2019-05-13T01:05:04.532Z,7.1
2019-05-13T01:06:04.615Z,7.1
2019-05-13T01:07:04.786Z,7
2019-05-13T01:08:04.726Z,7
2019-05-13T01:09:04.694Z,6.9
2019-05-13T01:10:04.798Z,6.9
2019-05-13T01:11:04.794Z,7
2019-05-13T01:12:04.845Z,7
2019-05-13T01:13:05.089Z,7
2019-05-13T01:14:04.884Z,6.9
2019-05-13T01:15:04.899Z,7
2019-05-13T01:16:05.002Z,6.9
2019-05-13T01:17:05.039Z,6.9
2019-05-13T01:18:05.060Z,6.9
2019-05-13T01:19:05.041Z,7
2019-05-13T01:20:05.206Z,7.1
2019-05-13T01:21:05.167Z,7.1
2019-05-13T01:22:05.151Z,7
2019-05-13T01:23:05.214Z,7
2019-05-13T01:24:05.277Z,7
2019-05-13T01:25:05.317Z,6.8
2019-05-13T01:26:05.364Z,6.9
2019-05-13T01:27:05.468Z,6.9
2019-05-13T01:28:05.433Z,6.9
2019-05-13T01:29:05.484Z,6.8
2019-05-13T01:30:05.560Z,6.7
2019-05-13T01:31:05.668Z,6.6
2019-05-13T01:32:05.708Z,6.5
2019-05-13T01:33:05.804Z,6.4
2019-05-13T01:34:05.791Z,6.3
2019-05-13T01:35:05.875Z,6.3
2019-05-13T01:36:05.893Z,6.4
2019-05-13T01:37:05.896Z,6.4
2019-05-13T01:38:05.924Z,6.4
2019-05-13T01:39:05.950Z,6.5
2019-05-13T01:40:06.054Z,6.5
2019-05-13T01:41:06.086Z,6.6
2019-05-13T01:42:08.681Z,6.4
2019-05-13T01:43:09.564Z,6.4
2019-05-13T01:44:06.123Z,6.5
2019-05-13T01:45:06.159Z,6.5
2019-05-13T01:46:06.212Z,6.4
2019-05-13T01:47:06.228Z,6.5
2019-05-13T01:48:07.845Z,6.5
2019-05-13T01:49:06.318Z,6.6
2019-05-13T01:50:06.338Z,6.6
2019-05-13T01:51:06.407Z,6.4
2019-05-13T01:52:06.461Z,6.4
2019-05-13T01:53:06.452Z,6.5
2019-05-13T01:54:06.483Z,6.6
2019-05-13T01:55:06.529Z,6.5
2019-05-13T01:56:06.836Z,6.4
2019-05-13T01:57:06.906Z,6.5
2019-05-13T01:58:07.077Z,6.3
2019-05-13T01:59:06.924Z,6.2
2019-05-13T02:00:07.274Z,6.3
2019-05-13T02:01:06.790Z,6.3
2019-05-13T02:02:07.704Z,6.2
2019-05-13T02:03:07.688Z,6.4
2019-05-13T02:04:07.919Z,6.2
2019-05-13T02:05:07.961Z,6.1
2019-05-13T02:06:08.200Z,6.3
2019-05-13T02:07:08.295Z,6.4
2019-05-13T02:08:08.692Z,6.4
2019-05-13T02:09:08.575Z,6.4
2019-05-13T02:10:07.818Z,6.4
2019-05-13T02:11:08.693Z,6.3
2019-05-13T02:12:09.074Z,6.3
2019-05-13T02:13:09.024Z,6.3
2019-05-13T02:14:09.346Z,6.4
2019-05-13T02:15:09.391Z,6.3
2019-05-13T02:16:09.418Z,6.1
2019-05-13T02:17:07.423Z,6
2019-05-13T02:18:09.216Z,5.9
2019-05-13T02:19:09.943Z,6
2019-05-13T02:20:10.044Z,6
2019-05-13T02:21:07.511Z,6.1
2019-05-13T02:22:10.011Z,6.2
2019-05-13T02:23:10.488Z,6.2
2019-05-13T02:24:10.610Z,5.9
2019-05-13T02:25:07.639Z,5.8
2019-05-13T02:26:07.693Z,6
2019-05-13T02:27:07.927Z,6.1
2019-05-13T02:28:10.274Z,6.1
2019-05-13T02:29:08.107Z,6.2
2019-05-13T02:30:07.830Z,6.1
2019-05-13T02:31:07.917Z,6.2
2019-05-13T02:32:08.042Z,6.3
2019-05-13T02:33:08.109Z,6.3
2019-05-13T02:34:07.970Z,6.3
2019-05-13T02:35:08.012Z,6.3
2019-05-13T02:36:08.095Z,6.2
2019-05-13T02:37:08.116Z,6.1
2019-05-13T02:38:19.257Z,6
2019-05-13T02:39:08.196Z,6
2019-05-13T02:40:08.258Z,6
2019-05-13T02:41:08.321Z,6.1
2019-05-13T02:42:08.483Z,6.1
2019-05-13T02:43:08.498Z,6
2019-05-13T02:44:08.520Z,6
2019-05-13T02:45:08.562Z,6.1
2019-05-13T02:46:08.588Z,6
2019-05-13T02:47:08.674Z,6
2019-05-13T02:49:08.703Z,6
2019-05-13T02:50:08.711Z,6
2019-05-13T02:51:11.571Z,5.8
2019-05-13T02:52:08.861Z,5.7
2019-05-13T02:53:08.797Z,5.8
2019-05-13T02:55:12.025Z,6.1
2019-05-13T02:57:11.768Z,5.9
2019-05-13T03:00:12.488Z,5.9
2019-05-13T03:01:12.238Z,5.9
2019-05-13T03:02:11.976Z,6
2019-05-13T03:03:12.481Z,6
2019-05-13T03:04:09.206Z,6
2019-05-13T03:05:09.250Z,5.9
2019-05-13T03:06:09.287Z,5.8
2019-05-13T03:07:11.797Z,5.9
2019-05-13T03:08:12.426Z,5.9
2019-05-13T03:09:12.391Z,5.9
2019-05-13T03:10:09.415Z,5.9
2019-05-13T03:11:12.458Z,5.8
2019-05-13T03:12:12.569Z,5.8
2019-05-13T03:13:12.514Z,5.8
2019-05-13T03:14:12.483Z,5.8
2019-05-13T03:15:12.925Z,5.8
2019-05-13T03:16:12.785Z,5.9
2019-05-13T03:17:12.772Z,6
2019-05-13T03:18:13.012Z,6
2019-05-13T03:19:13.248Z,5.9
2019-05-13T03:20:15.492Z,5.9
2019-05-13T03:21:12.660Z,5.7
2019-05-13T03:22:13.393Z,5.7
2019-05-13T03:23:12.526Z,5.8
2019-05-13T03:24:12.990Z,5.7
2019-05-13T03:25:12.701Z,5.6
2019-05-13T03:26:12.645Z,5.8
2019-05-13T03:27:12.659Z,5.6
2019-05-13T03:28:13.127Z,5.6
2019-05-13T03:29:12.249Z,5.6
2019-05-13T03:30:15.337Z,5.5
2019-05-13T03:31:15.795Z,5.5
2019-05-13T03:32:15.751Z,5.2
2019-05-13T03:33:16.776Z,4.9
2019-05-13T03:34:15.456Z,4.8
2019-05-13T03:35:15.664Z,4.7
2019-05-13T03:36:16.063Z,4.7
2019-05-13T03:37:15.268Z,4.7
2019-05-13T03:38:12.732Z,4.8
2019-05-13T03:39:15.511Z,4.8
2019-05-13T03:40:13.284Z,5
2019-05-13T03:41:12.088Z,5.1
2019-05-13T03:42:12.283Z,4.9
2019-05-13T03:43:12.785Z,4.9
2019-05-13T03:44:13.356Z,4.7
2019-05-13T03:45:12.940Z,4.6
2019-05-13T03:46:12.126Z,4.6
2019-05-13T03:47:12.590Z,4.5
2019-05-13T03:48:12.178Z,4.4
2019-05-13T03:49:13.657Z,4.4
2019-05-13T03:50:12.960Z,4.5
2019-05-13T03:51:13.204Z,4.6
2019-05-13T03:52:13.411Z,4.7
2019-05-13T03:53:12.962Z,4.8
2019-05-13T03:54:12.850Z,4.8
2019-05-13T03:55:12.976Z,4.9
2019-05-13T03:56:12.803Z,4.9
2019-05-13T03:57:12.548Z,5
2019-05-13T03:58:13.032Z,4.9
2019-05-13T03:59:13.260Z,4.9
2019-05-13T04:00:13.064Z,4.8
2019-05-13T04:01:12.941Z,4.9
2019-05-13T04:02:12.932Z,4.9
2019-05-13T04:03:13.466Z,4.9
2019-05-13T04:04:12.538Z,4.9
2019-05-13T04:05:13.277Z,5
2019-05-13T04:06:13.452Z,5
2019-05-13T04:07:12.902Z,5.1
2019-05-13T04:08:13.175Z,5
2019-05-13T04:09:22.047Z,5.1
2019-05-13T04:10:13.107Z,5.2
2019-05-13T04:11:12.634Z,5.1
2019-05-13T04:12:13.357Z,5.1
2019-05-13T04:13:12.474Z,5.1
2019-05-13T04:14:12.495Z,5.2
2019-05-13T04:15:12.672Z,5.2
2019-05-13T04:16:12.667Z,5.1
2019-05-13T04:17:12.646Z,5.2
2019-05-13T04:18:12.612Z,5.2
2019-05-13T04:19:12.430Z,5.1
2019-05-13T04:20:12.681Z,5.2
2019-05-13T04:21:13.185Z,5.1
2019-05-13T04:22:12.978Z,4.9
2019-05-13T04:23:12.929Z,4.9
2019-05-13T04:24:12.436Z,4.9
2019-05-13T04:25:13.380Z,5.1
2019-05-13T04:26:14.596Z,5.2
2019-05-13T04:27:13.307Z,5.4
2019-05-13T04:28:13.279Z,5.5
2019-05-13T04:29:13.341Z,5.1
2019-05-13T04:30:13.439Z,4.9
2019-05-13T04:31:14.024Z,4.8
2019-05-13T04:32:13.200Z,4.7
2019-05-13T04:33:13.823Z,4.7
2019-05-13T04:34:12.702Z,4.9
2019-05-13T04:35:12.722Z,5.1
2019-05-13T04:36:13.505Z,5.3
2019-05-13T04:37:13.444Z,5.2
2019-05-13T04:38:13.307Z,5
2019-05-13T04:39:13.185Z,5.2
2019-05-13T04:40:13.133Z,5.4
2019-05-13T04:41:12.989Z,5.5
2019-05-13T04:42:13.034Z,5.6
2019-05-13T04:43:13.266Z,5.5
2019-05-13T04:44:13.345Z,5.5
2019-05-13T04:45:13.541Z,5.6
2019-05-13T04:46:14.195Z,5.6
2019-05-13T04:47:13.296Z,5.6
2019-05-13T04:48:14.088Z,5.6
2019-05-13T04:49:13.294Z,5.6
2019-05-13T04:50:13.340Z,5.6
2019-05-13T04:51:14.547Z,5.7
2019-05-13T04:52:13.698Z,5.7
2019-05-13T04:53:13.813Z,5.6
2019-05-13T04:54:13.477Z,5.7
2019-05-13T04:55:13.523Z,5.8
2019-05-13T04:56:14.189Z,5.9
2019-05-13T04:57:13.604Z,5.9
2019-05-13T04:58:35.944Z,5.9
2019-05-13T04:59:13.666Z,6
2019-05-13T05:00:14.802Z,5.9
2019-05-13T05:01:14.336Z,5.9
2019-05-13T05:02:13.817Z,6
2019-05-13T05:03:21.274Z,6.1
2019-05-13T05:04:23.760Z,6
2019-05-13T05:05:14.020Z,6.1
2019-05-13T05:06:14.113Z,5.8
2019-05-13T05:07:14.229Z,5.6
2019-05-13T05:08:17.364Z,5.7
2019-05-13T05:09:15.303Z,5.8
2019-05-13T05:10:23.164Z,5.7
2019-05-13T05:11:15.366Z,5.9
2019-05-13T05:12:14.400Z,6.2
2019-05-13T05:13:26.637Z,6.2
2019-05-13T05:14:41.547Z,5.9
2019-05-13T05:15:17.748Z,5.9
2019-05-13T05:18:52.382Z,6.1
2019-05-13T05:18:52.382Z,5.9
2019-05-13T05:19:18.218Z,5.9
2019-05-13T05:20:47.203Z,5.9
2019-05-13T05:21:14.643Z,5.9
2019-05-13T05:22:14.749Z,6.1
2019-05-13T05:23:14.754Z,6.1
2019-05-13T05:24:14.773Z,6.1
2019-05-13T05:25:14.803Z,6.4
2019-05-13T05:26:15.288Z,6.6
2019-05-13T05:27:14.858Z,6.5
2019-05-13T05:28:14.963Z,6.5
2019-05-13T05:29:14.932Z,6.7
2019-05-13T05:30:14.960Z,6.7
2019-05-13T05:31:15.165Z,6.5
2019-05-13T05:32:15.063Z,6.4
2019-05-13T05:33:15.105Z,6.3
2019-05-13T05:34:15.103Z,6.4
2019-05-13T05:35:15.140Z,6.5
2019-05-13T05:36:15.183Z,6.6
2019-05-13T05:37:15.223Z,6.7
2019-05-13T05:38:15.293Z,6.8
2019-05-13T05:39:15.294Z,7
2019-05-13T05:40:28.001Z,6.9
2019-05-13T05:41:15.350Z,6.6
2019-05-13T05:42:15.466Z,6.5
2019-05-13T05:43:15.849Z,6.5
2019-05-13T05:44:15.489Z,6.5
2019-05-13T05:45:15.521Z,6.4
2019-05-13T05:46:15.563Z,6.6
2019-05-13T05:47:15.621Z,6.7
2019-05-13T05:48:15.747Z,6.9
2019-05-13T05:49:15.707Z,7.1
2019-05-13T05:50:15.810Z,7
2019-05-13T05:51:15.830Z,6.8
2019-05-13T05:52:15.817Z,6.8
2019-05-13T05:53:15.868Z,6.8
2019-05-13T05:54:15.890Z,6.9
2019-05-13T05:55:15.928Z,6.9
2019-05-13T05:56:15.963Z,6.9
2019-05-13T05:57:15.990Z,7
2019-05-13T05:58:16.088Z,7
2019-05-13T05:59:16.097Z,7.1
2019-05-13T06:00:16.115Z,7.2
2019-05-13T06:01:16.143Z,7.2
2019-05-13T06:02:16.189Z,7.2
2019-05-13T06:03:16.244Z,7.1
2019-05-13T06:04:16.272Z,7.2
2019-05-13T06:05:16.301Z,7.1
2019-05-13T06:06:16.336Z,7
2019-05-13T06:07:16.422Z,7
2019-05-13T06:08:17.835Z,7.1
2019-05-13T06:09:16.475Z,7.1
2019-05-13T06:10:16.480Z,7
2019-05-13T06:11:16.559Z,7
2019-05-13T06:12:16.618Z,7.2
2019-05-13T06:13:16.634Z,7.2
2019-05-13T06:14:16.659Z,7.2
2019-05-13T06:15:16.700Z,7.4
2019-05-13T06:16:16.788Z,7.4
2019-05-13T06:17:16.825Z,7.5
2019-05-13T06:18:17.054Z,7.3
2019-05-13T06:19:17.943Z,7.5
2019-05-13T06:20:17.016Z,7.6
2019-05-13T06:21:17.123Z,7.6
2019-05-13T06:22:17.107Z,7.4
2019-05-13T06:23:17.380Z,7.5
2019-05-13T06:24:17.348Z,7.5
2019-05-13T06:25:17.285Z,7.8
2019-05-13T06:26:17.311Z,7.8
2019-05-13T06:27:17.305Z,7.7
2019-05-13T06:28:17.343Z,7.6
2019-05-13T06:29:17.323Z,7.5
2019-05-13T06:30:17.384Z,7.8
2019-05-13T06:31:17.397Z,7.9
2019-05-13T06:32:23.188Z,8.1
2019-05-13T06:33:17.536Z,8.2
2019-05-13T06:34:17.485Z,8.1
2019-05-13T06:35:17.528Z,7.7
2019-05-13T06:36:17.589Z,7.6
2019-05-13T06:37:17.589Z,7.8
2019-05-13T06:38:17.709Z,7.7
2019-05-13T06:39:17.680Z,7.8
2019-05-13T06:40:17.741Z,7.8
2019-05-13T06:41:17.772Z,7.8
2019-05-13T06:42:17.798Z,7.8
2019-05-13T06:43:17.998Z,7.8
2019-05-13T06:44:17.849Z,7.9
2019-05-13T06:45:17.907Z,7.9
2019-05-13T06:46:17.941Z,7.7
2019-05-13T06:47:17.950Z,7.9
2019-05-13T06:48:18.042Z,8.1
2019-05-13T06:49:18.053Z,8.2
2019-05-13T06:50:18.082Z,8.1
2019-05-13T06:51:18.121Z,8.3
2019-05-13T06:52:18.155Z,8.3
2019-05-13T06:53:18.275Z,8.3
2019-05-13T06:54:18.257Z,8.3
2019-05-13T06:55:18.286Z,8.3
2019-05-13T06:56:18.311Z,8.4
2019-05-13T06:57:18.346Z,8.4
2019-05-13T06:58:18.421Z,8.5
2019-05-13T06:59:18.458Z,8.5
2019-05-13T07:00:18.505Z,8.8
2019-05-13T07:01:18.524Z,8.7
2019-05-13T07:02:18.552Z,8.8
2019-05-13T07:03:18.604Z,9
2019-05-13T07:04:18.668Z,9
2019-05-13T07:05:18.668Z,8.7
2019-05-13T07:06:18.749Z,8.8
2019-05-13T07:07:18.766Z,9
2019-05-13T07:08:18.815Z,9.1
2019-05-13T07:09:21.444Z,9.2
2019-05-13T07:10:18.860Z,9.3
2019-05-13T07:11:22.128Z,9.4
2019-05-13T07:12:18.939Z,9.3
2019-05-13T07:13:18.992Z,9.1
2019-05-13T07:14:19.045Z,9.1
2019-05-13T07:15:19.140Z,9.3
2019-05-13T07:16:19.096Z,9.3
2019-05-13T07:17:21.965Z,9.1
2019-05-13T07:18:21.694Z,9.1
2019-05-13T07:19:19.256Z,9.2
2019-05-13T07:20:22.212Z,9.2
2019-05-13T07:21:21.450Z,9.3
2019-05-13T07:22:22.617Z,9.4
2019-05-13T07:23:19.431Z,9.3
2019-05-13T07:24:21.366Z,9.4
2019-05-13T07:25:21.937Z,9.5
2019-05-13T07:26:21.870Z,9.5
2019-05-13T07:27:19.611Z,9.6
2019-05-13T07:28:21.870Z,9.6
2019-05-13T07:29:20.261Z,9.6
2019-05-13T07:30:21.241Z,9.7
2019-05-13T07:31:21.747Z,9.7
2019-05-13T07:32:22.071Z,9.8
2019-05-13T07:33:21.316Z,10
2019-05-13T07:34:23.988Z,10
2019-05-13T07:35:22.623Z,26.7
2019-05-13T07:36:22.292Z,9.9
2019-05-13T07:37:21.854Z,10
2019-05-13T07:38:22.180Z,10
2019-05-13T07:39:22.298Z,9.8
2019-05-13T07:40:22.187Z,9.6
2019-05-13T07:41:32.854Z,9.7
2019-05-13T07:42:22.154Z,9.9
2019-05-13T07:43:21.450Z,10
2019-05-13T07:44:22.312Z,10
2019-05-13T07:45:21.267Z,9.9
2019-05-13T07:46:21.744Z,9.9
2019-05-13T07:47:22.246Z,9.9
2019-05-13T07:48:23.988Z,10
2019-05-13T07:49:22.427Z,10.1
2019-05-13T07:50:21.768Z,10.4
2019-05-13T07:51:22.135Z,10.5
2019-05-13T07:52:22.690Z,10.4
2019-05-13T07:53:22.138Z,10.4
2019-05-13T07:54:22.001Z,10.5
2019-05-13T07:55:22.244Z,10.5
2019-05-13T07:56:21.793Z,10.5
2019-05-13T07:57:21.433Z,10.7
2019-05-13T07:58:22.844Z,10.7
2019-05-13T07:59:21.199Z,10.6
2019-05-13T08:00:21.723Z,10.6
2019-05-13T08:01:22.036Z,10.5
2019-05-13T08:02:21.645Z,18.7
2019-05-13T08:03:21.455Z,10.4
2019-05-13T08:04:23.496Z,10.4
2019-05-13T08:05:22.339Z,10.5
2019-05-13T08:06:22.089Z,10.6
2019-05-13T08:07:22.566Z,10.5
2019-05-13T08:08:22.003Z,10.6
2019-05-13T08:09:21.632Z,10.8
2019-05-13T08:10:21.902Z,10.6
2019-05-13T08:11:22.326Z,10.5
2019-05-13T08:12:21.636Z,10.6
2019-05-13T08:13:22.424Z,10.8
2019-05-13T08:14:21.890Z,10.9
2019-05-13T08:15:22.306Z,11.1
2019-05-13T08:16:22.252Z,11.2
2019-05-13T08:17:22.414Z,11.3
2019-05-13T08:18:22.161Z,11.4
2019-05-13T08:19:21.847Z,11.5
2019-05-13T08:20:22.171Z,11.5
2019-05-13T08:21:21.688Z,11.6
2019-05-13T08:22:22.157Z,11.7
2019-05-13T08:23:21.835Z,11.9
2019-05-13T08:24:22.584Z,12
2019-05-13T08:25:22.331Z,12.1
2019-05-13T08:26:21.854Z,12.1
2019-05-13T08:27:30.178Z,12.1
2019-05-13T08:28:22.625Z,11.9
2019-05-13T08:29:21.990Z,12
2019-05-13T08:30:22.668Z,12.1
2019-05-13T08:31:22.082Z,12.2
2019-05-13T08:32:22.260Z,12.3
2019-05-13T08:33:22.723Z,12.4
2019-05-13T08:34:22.664Z,12.3
2019-05-13T08:35:22.643Z,12.4
2019-05-13T08:36:23.444Z,12.3
2019-05-13T08:37:22.265Z,12.1
2019-05-13T08:38:23.047Z,12.1
2019-05-13T08:39:26.733Z,12.4
2019-05-13T08:40:23.355Z,12.6
2019-05-13T08:41:23.406Z,12.5
2019-05-13T08:42:23.445Z,12.6
2019-05-13T08:43:22.722Z,12.7
2019-05-13T08:44:22.727Z,13
2019-05-13T08:45:22.693Z,13.1
2019-05-13T08:46:23.015Z,13.1
2019-05-13T08:47:22.743Z,13
2019-05-13T08:48:22.852Z,13.2
2019-05-13T08:49:22.933Z,13.3
2019-05-13T08:50:22.924Z,13.4
2019-05-13T08:51:22.982Z,13.6
2019-05-13T08:52:22.978Z,21.5
2019-05-13T08:53:23.063Z,13.4
2019-05-13T08:54:23.113Z,13.4
2019-05-13T08:55:23.063Z,13.4
2019-05-13T08:56:23.148Z,13.4
2019-05-13T08:57:23.243Z,13.4
2019-05-13T08:58:23.172Z,13.4
2019-05-13T08:59:23.275Z,13
2019-05-13T09:00:23.269Z,13.2
2019-05-13T09:01:23.358Z,13.3
2019-05-13T09:02:23.396Z,13.7
2019-05-13T09:03:23.401Z,14.3
2019-05-13T09:04:23.433Z,14.1
2019-05-13T09:05:23.453Z,13.9
2019-05-13T09:06:23.492Z,13.9
2019-05-13T09:07:24.411Z,37.6
2019-05-13T09:08:23.569Z,37.6
2019-05-13T09:09:23.640Z,29.8
2019-05-13T09:10:23.657Z,37.6
2019-05-13T09:11:23.687Z,13.9
2019-05-13T09:12:31.911Z,14
2019-05-13T09:13:23.731Z,14.1
2019-05-13T09:14:23.814Z,14.3
2019-05-13T09:15:23.853Z,14.3
2019-05-13T09:16:23.960Z,14.7
2019-05-13T09:17:23.926Z,14.7
2019-05-13T09:18:23.957Z,14.4
2019-05-13T09:19:25.046Z,14.6
2019-05-13T09:20:24.037Z,14.7
2019-05-13T09:21:24.096Z,14.9
2019-05-13T09:22:24.144Z,14.7
2019-05-13T09:23:54.330Z,14.4
2019-05-13T09:24:31.002Z,14.7
2019-05-13T09:25:24.334Z,61.7
2019-05-13T09:26:24.531Z,14.9
2019-05-13T09:27:24.346Z,14.6
2019-05-13T09:28:24.383Z,14.4
2019-05-13T09:29:24.449Z,14.7
2019-05-13T09:30:27.219Z,14.7
2019-05-13T09:31:24.547Z,14.7
2019-05-13T09:32:24.542Z,22.6
2019-05-13T09:33:24.587Z,15
2019-05-13T09:34:24.635Z,15
2019-05-13T09:35:24.716Z,15.1
2019-05-13T09:36:24.695Z,15.4
2019-05-13T09:37:24.740Z,15.2
2019-05-13T09:38:24.810Z,14.8
2019-05-13T09:39:24.812Z,22.6
2019-05-13T09:40:24.864Z,14.8
2019-05-13T09:41:24.911Z,15
2019-05-13T09:42:24.947Z,14.8
2019-05-13T09:43:24.946Z,14.9
2019-05-13T09:44:25.002Z,15.2
2019-05-13T09:45:25.234Z,15.7
2019-05-13T09:46:25.065Z,16
2019-05-13T09:47:28.297Z,16.1
2019-05-13T09:48:25.205Z,15.9
2019-05-13T09:49:25.246Z,15.7
2019-05-13T09:50:31.607Z,15.8
2019-05-13T09:51:25.381Z,31.1
2019-05-13T09:52:25.471Z,15.4
2019-05-13T09:53:25.580Z,15.5
2019-05-13T09:54:25.565Z,15.7
2019-05-13T09:55:29.101Z,15.8
2019-05-13T09:56:25.857Z,15.9
2019-05-13T09:57:25.773Z,15.9
2019-05-13T09:58:29.180Z,16.1
2019-05-13T09:59:25.938Z,15.8
2019-05-13T10:00:25.833Z,15.2
2019-05-13T10:01:25.853Z,15.6
2019-05-13T10:02:25.905Z,15.8
2019-05-13T10:03:29.490Z,15.2
2019-05-13T10:04:25.968Z,15.4
2019-05-13T10:05:26.034Z,15.5
2019-05-13T10:06:26.008Z,15.3
2019-05-13T10:07:26.102Z,31
2019-05-13T10:08:26.070Z,15.7
2019-05-13T10:09:26.100Z,23.6
2019-05-13T10:10:26.186Z,16.1
2019-05-13T10:11:26.225Z,16.3
2019-05-13T10:12:26.285Z,16.4
2019-05-13T10:13:26.251Z,16.5
2019-05-13T10:14:26.314Z,16.4
2019-05-13T10:15:26.376Z,16.3
2019-05-13T10:16:26.387Z,31.3
2019-05-13T10:17:26.419Z,15.8
2019-05-13T10:18:26.441Z,15.8
2019-05-13T10:19:26.502Z,15.9
2019-05-13T10:20:26.545Z,15.9
2019-05-13T10:21:26.524Z,23.6
2019-05-13T10:22:26.567Z,31.4
2019-05-13T10:23:26.624Z,23.7
2019-05-13T10:24:26.657Z,16.2
2019-05-13T10:25:26.713Z,15.9
2019-05-13T10:26:26.705Z,23.6
2019-05-13T10:27:26.753Z,16.2
2019-05-13T10:28:26.783Z,16
2019-05-13T10:29:26.846Z,16.2
2019-05-13T10:30:27.257Z,16.3
2019-05-13T10:31:26.907Z,16.3
2019-05-13T10:32:26.948Z,16.2
2019-05-13T10:33:26.967Z,16.2
2019-05-13T10:34:27.094Z,16
2019-05-13T10:35:27.105Z,15.9
2019-05-13T10:36:27.696Z,16.2
2019-05-13T10:37:27.501Z,16.3
2019-05-13T10:38:28.359Z,16.6
2019-05-13T10:39:27.214Z,16.6
2019-05-13T10:40:27.320Z,16.4
2019-05-13T10:41:27.336Z,16.3
2019-05-13T10:42:27.651Z,16.5
2019-05-13T10:43:31.535Z,16.8
2019-05-13T10:44:27.583Z,16.8
2019-05-13T10:45:27.779Z,16.4
2019-05-13T10:46:27.798Z,16.2
2019-05-13T10:47:27.546Z,16.2
2019-05-13T10:48:27.814Z,16.1
2019-05-13T10:49:27.932Z,16.3
2019-05-13T10:50:27.867Z,16.7
2019-05-13T10:51:27.770Z,16.4
2019-05-13T10:52:27.776Z,16.5
2019-05-13T10:53:27.851Z,16.6
2019-05-13T10:54:27.816Z,24.1
2019-05-13T10:55:27.884Z,23.9
2019-05-13T10:56:27.920Z,16.4
2019-05-13T10:57:27.915Z,16.7
2019-05-13T10:58:27.965Z,31.8
2019-05-13T10:59:28.037Z,24.2
2019-05-13T11:00:28.073Z,16.9
2019-05-13T11:01:28.139Z,17
2019-05-13T11:02:28.288Z,17.1
2019-05-13T11:03:28.316Z,16.8
2019-05-13T11:04:28.381Z,16.8
2019-05-13T11:05:28.390Z,16.7
2019-05-13T11:06:28.443Z,16.8
2019-05-13T11:07:28.490Z,17.2
2019-05-13T11:08:28.520Z,17.1
2019-05-13T11:09:28.540Z,17.1
2019-05-13T11:10:28.612Z,17
2019-05-13T11:11:28.761Z,16.6
2019-05-13T11:12:28.748Z,16.6
2019-05-13T11:13:47.660Z,16.7
2019-05-13T11:14:28.707Z,17.1
2019-05-13T11:15:32.620Z,17.1
2019-05-13T11:16:28.786Z,16.6
2019-05-13T11:17:30.763Z,16.6
2019-05-13T11:18:28.831Z,17.1
2019-05-13T11:19:34.161Z,39.6
2019-05-13T11:20:28.911Z,16.9
2019-05-13T11:21:37.198Z,16.6
2019-05-13T11:22:29.355Z,16.8
2019-05-13T11:23:29.039Z,16.8
2019-05-13T11:24:31.953Z,24.5
2019-05-13T11:25:29.109Z,16.9
2019-05-13T11:26:29.116Z,39.7
2019-05-13T11:27:29.196Z,17.5
2019-05-13T11:28:29.598Z,17.7
2019-05-13T11:29:31.476Z,17.7
2019-05-13T11:30:31.324Z,17.1
2019-05-13T11:31:32.510Z,16.9
2019-05-13T11:32:31.525Z,16.9
2019-05-13T11:33:31.539Z,17.1
2019-05-13T11:34:32.596Z,17
2019-05-13T11:35:31.841Z,17.4
2019-05-13T11:36:30.046Z,32.4
2019-05-13T11:37:31.825Z,32.1
2019-05-13T11:38:32.104Z,17.1
2019-05-13T11:39:31.862Z,17.1
2019-05-13T11:40:31.754Z,17
2019-05-13T11:41:29.666Z,16.9
2019-05-13T11:42:32.521Z,16.7
2019-05-13T11:43:29.788Z,16.6
2019-05-13T11:44:32.142Z,16.7
2019-05-13T11:45:31.518Z,16.4
2019-05-13T11:46:32.446Z,17.2
2019-05-13T11:47:32.202Z,17.3
2019-05-13T11:48:32.240Z,40
2019-05-13T11:49:31.536Z,17.4
2019-05-13T11:50:30.010Z,17.1
2019-05-13T11:51:31.937Z,17
2019-05-13T11:52:31.543Z,17.3
2019-05-13T11:53:33.701Z,16.9
2019-05-13T11:54:31.279Z,17
2019-05-13T11:55:30.436Z,32.2
2019-05-13T11:56:33.607Z,25
2019-05-13T11:57:31.555Z,17.8
2019-05-13T11:58:32.703Z,17.5
2019-05-13T11:59:32.810Z,17.3
2019-05-13T12:00:31.775Z,17.1
2019-05-13T12:01:33.344Z,17
2019-05-13T12:02:32.634Z,17.2
2019-05-13T12:03:32.356Z,17.7
2019-05-13T12:04:34.314Z,17.2
2019-05-13T12:05:32.624Z,17.4
2019-05-13T12:07:14.827Z,17.5
2019-05-13T12:07:32.864Z,25.1
2019-05-13T12:08:33.741Z,17.9
2019-05-13T12:09:31.953Z,18.3
2019-05-13T12:10:32.601Z,18.4
2019-05-13T12:11:33.290Z,18.2
2019-05-13T12:12:34.356Z,18.1
2019-05-13T12:13:32.779Z,18
2019-05-13T12:14:44.114Z,18
2019-05-13T12:15:45.192Z,18.2
2019-05-13T12:16:34.744Z,18.1
2019-05-13T12:17:33.903Z,18.1
2019-05-13T12:18:31.273Z,18.1
2019-05-13T12:19:31.272Z,18.4
2019-05-13T12:20:32.804Z,18.1
2019-05-13T12:21:31.299Z,17.7
2019-05-13T12:22:31.362Z,17.6
2019-05-13T12:23:31.408Z,17.6
2019-05-13T12:24:31.427Z,18.3
2019-05-13T12:25:33.440Z,18.1
2019-05-13T12:26:33.241Z,18.1
2019-05-13T12:27:31.787Z,18.4
2019-05-13T12:28:31.601Z,18.3
2019-05-13T12:29:31.599Z,17.7
2019-05-13T12:30:33.789Z,17.7
2019-05-13T12:31:33.546Z,18
2019-05-13T12:32:32.363Z,18.5
2019-05-13T12:33:32.583Z,18.8
2019-05-13T12:34:45.690Z,18.2
2019-05-13T12:35:32.785Z,18
2019-05-13T12:36:32.897Z,17.7
2019-05-13T12:37:53.243Z,17.1
2019-05-13T12:38:33.330Z,17.2
2019-05-13T12:39:32.125Z,17.4
2019-05-13T12:40:33.629Z,17.5
2019-05-13T12:41:32.913Z,17.7
2019-05-13T12:42:33.755Z,18
2019-05-13T12:43:32.092Z,18.2
2019-05-13T12:44:32.033Z,32.9
2019-05-13T12:45:32.102Z,25.8
2019-05-13T12:46:32.114Z,25.9
2019-05-13T12:47:32.146Z,18
2019-05-13T12:48:32.289Z,18.2
2019-05-13T12:49:36.356Z,17.9
2019-05-13T12:50:32.977Z,18.1
2019-05-13T12:51:32.645Z,18
2019-05-13T12:52:32.704Z,18.2
2019-05-13T12:53:32.484Z,18.2
2019-05-13T12:54:32.637Z,17.9
2019-05-13T12:55:33.190Z,18.1
2019-05-13T12:56:33.447Z,18.1
2019-05-13T12:57:32.628Z,18.4
2019-05-13T12:58:33.803Z,18.1
2019-05-13T12:59:32.575Z,17.9
2019-05-13T13:00:33.692Z,17.6
2019-05-13T13:01:32.720Z,17.6
2019-05-13T13:02:32.785Z,17.8
2019-05-13T13:03:32.772Z,17.9
2019-05-13T13:04:33.732Z,18.5
2019-05-13T13:05:36.811Z,19.1
2019-05-13T13:06:40.230Z,19.1
2019-05-13T13:07:41.187Z,19.1
2019-05-13T13:08:42.270Z,19.3
2019-05-13T13:09:33.710Z,19
2019-05-13T13:10:34.602Z,18.5
2019-05-13T13:11:33.107Z,18.2
2019-05-13T13:12:35.816Z,18
2019-05-13T13:13:56.521Z,33
2019-05-13T13:15:40.886Z,33.5
2019-05-13T13:16:34.706Z,19.2
2019-05-13T13:17:33.303Z,19
2019-05-13T13:18:33.363Z,19.2
2019-05-13T13:19:34.117Z,19.6
2019-05-13T13:20:40.967Z,33.9
2019-05-13T13:21:37.479Z,33.8
2019-05-13T13:22:33.554Z,18.6
2019-05-13T13:23:34.000Z,25.8
2019-05-13T13:24:33.621Z,18.6
2019-05-13T13:25:33.988Z,18.4
2019-05-13T13:26:34.054Z,18.4
2019-05-13T13:27:59.699Z,18.7
2019-05-13T13:28:34.386Z,18.5
2019-05-13T13:29:34.275Z,18.3
2019-05-13T13:30:35.410Z,18.8
2019-05-13T13:31:34.068Z,19.2
2019-05-13T13:32:33.994Z,19.6
2019-05-13T13:33:34.570Z,19.7
2019-05-13T13:34:34.050Z,19.4
2019-05-13T13:35:34.164Z,19.1
2019-05-13T13:36:34.251Z,19.1
2019-05-13T13:37:35.197Z,18.8
2019-05-13T13:38:34.311Z,18.5
2019-05-13T13:39:34.249Z,18.4
2019-05-13T13:40:35.553Z,25.9
2019-05-13T13:41:36.260Z,18.5
2019-05-13T13:42:34.922Z,19
2019-05-13T13:43:44.483Z,19
2019-05-13T13:44:37.372Z,18.8
2019-05-13T13:46:06.434Z,18.5
2019-05-13T13:47:34.555Z,18.5
2019-05-13T13:48:54.699Z,18.6